createdAt,value
2017-11-10T00:00:49.688Z,9.72
2017-11-10T00:01:49.017Z,9.76
2017-11-10T00:02:49.374Z,9.79
2017-11-10T00:03:49.706Z,9.73
2017-11-10T00:04:49.059Z,9.77
2017-11-10T00:05:49.761Z,9.68
2017-11-10T00:06:49.476Z,9.76
2017-11-10T00:07:49.780Z,9.64
2017-11-10T00:08:50.021Z,9.68
2017-11-10T00:09:49.974Z,9.72
2017-11-10T00:10:49.446Z,9.62
2017-11-10T00:11:50.504Z,9.69
2017-11-10T00:12:50.019Z,9.66
2017-11-10T00:13:49.614Z,9.66
2017-11-10T00:14:49.866Z,9.66
2017-11-10T00:15:49.787Z,9.73
2017-11-10T00:16:49.796Z,9.73
2017-11-10T00:17:49.803Z,9.64
2017-11-10T00:18:49.817Z,9.73
2017-11-10T00:19:49.832Z,9.68
2017-11-10T00:20:49.182Z,9.69
2017-11-10T00:21:49.864Z,9.69
2017-11-10T00:22:49.875Z,9.69
2017-11-10T00:23:49.891Z,9.65
2017-11-10T00:24:49.926Z,9.74
2017-11-10T00:25:49.921Z,9.69
2017-11-10T00:26:49.944Z,9.64
2017-11-10T00:27:49.952Z,9.68
2017-11-10T00:28:49.971Z,9.58
2017-11-10T00:29:49.651Z,9.66
2017-11-10T00:30:50.005Z,9.64
2017-11-10T00:31:49.671Z,9.74
2017-11-10T00:32:50.026Z,9.64
2017-11-10T00:33:49.709Z,9.73
2017-11-10T00:34:49.710Z,9.61
2017-11-10T00:35:50.060Z,9.68
2017-11-10T00:36:49.741Z,9.58
2017-11-10T00:37:50.117Z,9.62
2017-11-10T00:38:49.777Z,9.59
2017-11-10T00:39:50.143Z,9.65
2017-11-10T00:40:50.143Z,9.59
2017-11-10T00:41:50.321Z,9.62
2017-11-10T00:42:49.834Z,9.59
2017-11-10T00:43:50.200Z,9.62
2017-11-10T00:44:50.199Z,9.54
2017-11-10T00:45:50.224Z,9.62
2017-11-10T00:46:50.792Z,9.58
2017-11-10T00:47:50.032Z,9.54
2017-11-10T00:48:50.258Z,9.58
2017-11-10T00:49:50.281Z,9.58
2017-11-10T00:50:50.300Z,9.58
2017-11-10T00:51:50.297Z,9.56
2017-11-10T00:52:50.318Z,9.56
2017-11-10T00:53:50.341Z,9.56
2017-11-10T00:54:50.008Z,9.58
2017-11-10T00:55:50.363Z,9.55
2017-11-10T00:56:50.374Z,9.59
2017-11-10T00:57:50.054Z,9.61
2017-11-10T00:58:50.071Z,9.62
2017-11-10T00:59:50.446Z,9.54
2017-11-10T01:00:50.437Z,9.56
2017-11-10T01:01:50.453Z,9.54
2017-11-10T01:02:50.461Z,9.56
2017-11-10T01:03:50.480Z,9.56
2017-11-10T01:04:50.489Z,9.46
2017-11-10T01:05:50.504Z,9.46
2017-11-10T01:06:50.517Z,9.48
2017-11-10T01:07:50.195Z,9.59
2017-11-10T01:08:50.210Z,9.5
2017-11-10T01:09:50.563Z,9.5
2017-11-10T01:10:50.579Z,9.47
2017-11-10T01:11:50.590Z,9.55
2017-11-10T01:12:50.616Z,9.48
2017-11-10T01:13:50.615Z,9.47
2017-11-10T01:14:50.632Z,9.5
2017-11-10T01:15:49.975Z,9.54
2017-11-10T01:16:50.659Z,9.43
2017-11-10T01:17:50.338Z,9.46
2017-11-10T01:18:50.688Z,9.44
2017-11-10T01:19:50.707Z,9.41
2017-11-10T01:20:50.738Z,9.43
2017-11-10T01:21:50.412Z,9.41
2017-11-10T01:22:50.083Z,9.41
2017-11-10T01:23:50.429Z,9.44
2017-11-10T01:24:50.793Z,9.47
2017-11-10T01:25:50.460Z,9.46
2017-11-10T01:26:50.803Z,9.41
2017-11-10T01:27:50.829Z,9.46
2017-11-10T01:28:50.838Z,9.43
2017-11-10T01:29:50.850Z,9.46
2017-11-10T01:30:50.532Z,9.48
2017-11-10T01:31:50.547Z,9.46
2017-11-10T01:32:50.891Z,9.47
2017-11-10T01:33:50.572Z,9.39
2017-11-10T01:34:50.933Z,9.44
2017-11-10T01:35:50.936Z,9.47
2017-11-10T01:36:50.614Z,9.4
2017-11-10T01:37:50.972Z,9.44
2017-11-10T01:38:50.986Z,9.34
2017-11-10T01:39:51.006Z,9.41
2017-11-10T01:40:51.022Z,9.43
2017-11-10T01:41:51.074Z,9.44
2017-11-10T01:42:51.034Z,9.41
2017-11-10T01:43:51.056Z,9.43
2017-11-10T01:44:51.072Z,9.43
2017-11-10T01:45:51.083Z,9.44
2017-11-10T01:46:51.101Z,9.37
2017-11-10T01:47:51.110Z,9.4
2017-11-10T01:48:51.127Z,9.39
2017-11-10T01:49:51.143Z,9.41
2017-11-10T01:50:51.159Z,9.39
2017-11-10T01:51:51.166Z,9.41
2017-11-10T01:52:51.183Z,9.44
2017-11-10T01:53:51.197Z,9.41
2017-11-10T01:54:51.222Z,9.41
2017-11-10T01:55:51.236Z,9.4
2017-11-10T01:56:50.915Z,9.47
2017-11-10T01:57:50.927Z,9.48
2017-11-10T01:58:51.270Z,9.43
2017-11-10T01:59:50.944Z,9.48
2017-11-10T02:00:51.301Z,9.43
2017-11-10T02:01:50.637Z,9.44
2017-11-10T02:02:50.992Z,9.41
2017-11-10T02:03:51.339Z,9.46
2017-11-10T02:04:51.027Z,9.4
2017-11-10T02:05:51.368Z,9.48
2017-11-10T02:06:51.047Z,9.46
2017-11-10T02:07:51.402Z,9.48
2017-11-10T02:08:51.417Z,9.41
2017-11-10T02:09:51.087Z,9.43
2017-11-10T02:10:51.244Z,9.44
2017-11-10T02:11:51.454Z,9.43
2017-11-10T02:12:51.138Z,9.43
2017-11-10T02:13:51.151Z,9.47
2017-11-10T02:14:51.160Z,9.47
2017-11-10T02:15:51.515Z,9.46
2017-11-10T02:16:51.533Z,9.41
2017-11-10T02:17:51.210Z,9.39
2017-11-10T02:18:51.231Z,9.44
2017-11-10T02:19:51.241Z,9.44
2017-11-10T02:20:51.587Z,9.47
2017-11-10T02:21:51.599Z,9.44
2017-11-10T02:22:51.613Z,9.44
2017-11-10T02:23:51.635Z,9.4
2017-11-10T02:24:51.309Z,9.41
2017-11-10T02:25:51.321Z,9.4
2017-11-10T02:26:51.678Z,9.44
2017-11-10T02:27:51.012Z,9.43
2017-11-10T02:28:51.701Z,9.39
2017-11-10T02:29:51.713Z,9.34
2017-11-10T02:30:51.730Z,9.4
2017-11-10T02:31:51.748Z,9.37
2017-11-10T02:32:51.759Z,9.39
2017-11-10T02:33:51.440Z,9.44
2017-11-10T02:34:51.788Z,9.39
2017-11-10T02:35:51.820Z,9.37
2017-11-10T02:36:51.812Z,9.39
2017-11-10T02:37:51.506Z,9.43
2017-11-10T02:38:51.506Z,9.4
2017-11-10T02:39:51.859Z,9.41
2017-11-10T02:40:52.002Z,9.43
2017-11-10T02:41:51.886Z,9.46
2017-11-10T02:42:51.906Z,9.48
2017-11-10T02:43:51.918Z,9.5
2017-11-10T02:44:51.961Z,9.46
2017-11-10T02:45:51.608Z,9.43
2017-11-10T02:46:51.958Z,9.44
2017-11-10T02:47:51.991Z,9.46
2017-11-10T02:48:51.655Z,9.44
2017-11-10T02:49:52.001Z,9.44
2017-11-10T02:50:51.678Z,9.48
2017-11-10T02:51:52.035Z,9.44
2017-11-10T02:52:51.748Z,9.44
2017-11-10T02:53:51.719Z,9.44
2017-11-10T02:54:52.091Z,9.41
2017-11-10T02:55:52.102Z,9.44
2017-11-10T02:56:52.104Z,9.43
2017-11-10T02:57:52.126Z,9.44
2017-11-10T02:58:51.803Z,9.47
2017-11-10T02:59:52.146Z,9.39
2017-11-10T03:00:51.823Z,9.46
2017-11-10T03:01:51.505Z,9.41
2017-11-10T03:02:52.208Z,9.43
2017-11-10T03:03:52.228Z,9.43
2017-11-10T03:04:51.882Z,9.4
2017-11-10T03:05:52.228Z,9.46
2017-11-10T03:06:52.243Z,9.4
2017-11-10T03:07:51.965Z,9.43
2017-11-10T03:08:52.281Z,9.43
2017-11-10T03:09:51.960Z,9.43
2017-11-10T03:10:51.966Z,9.5
2017-11-10T03:11:52.318Z,9.47
2017-11-10T03:12:52.330Z,9.44
2017-11-10T03:13:52.011Z,9.44
2017-11-10T03:14:52.360Z,9.46
2017-11-10T03:15:52.040Z,9.44
2017-11-10T03:16:52.400Z,9.47
2017-11-10T03:17:52.400Z,9.55
2017-11-10T03:18:52.082Z,9.51
2017-11-10T03:19:52.433Z,9.54
2017-11-10T03:20:52.117Z,9.51
2017-11-10T03:21:52.466Z,9.54
2017-11-10T03:22:51.801Z,9.51
2017-11-10T03:23:52.490Z,9.51
2017-11-10T03:24:52.529Z,9.51
2017-11-10T03:25:52.530Z,9.47
2017-11-10T03:26:52.542Z,9.48
2017-11-10T03:27:52.225Z,9.5
2017-11-10T03:28:52.572Z,9.46
2017-11-10T03:29:52.243Z,9.56
2017-11-10T03:30:52.626Z,9.59
2017-11-10T03:31:52.272Z,9.44
2017-11-10T03:32:52.282Z,9.62
2017-11-10T03:33:52.296Z,9.51
2017-11-10T03:34:52.647Z,9.58
2017-11-10T03:35:52.691Z,9.55
2017-11-10T03:36:52.345Z,9.55
2017-11-10T03:37:52.696Z,9.59
2017-11-10T03:38:52.031Z,9.56
2017-11-10T03:39:52.715Z,9.55
2017-11-10T03:40:52.395Z,9.59
2017-11-10T03:41:52.750Z,9.59
2017-11-10T03:42:52.428Z,9.55
2017-11-10T03:43:52.775Z,9.54
2017-11-10T03:44:52.795Z,9.54
2017-11-10T03:45:52.144Z,9.55
2017-11-10T03:46:52.823Z,9.56
2017-11-10T03:47:52.836Z,9.51
2017-11-10T03:48:52.861Z,9.59
2017-11-10T03:49:52.868Z,9.58
2017-11-10T03:50:53.339Z,9.51
2017-11-10T03:51:52.940Z,9.56
2017-11-10T03:52:52.927Z,9.58
2017-11-10T03:53:52.583Z,9.56
2017-11-10T03:54:52.599Z,9.56
2017-11-10T03:55:53.002Z,9.56
2017-11-10T03:56:52.966Z,9.62
2017-11-10T03:57:52.979Z,9.62
2017-11-10T03:58:52.992Z,9.59
2017-11-10T03:59:53.019Z,9.47
2017-11-10T04:00:53.022Z,9.59
2017-11-10T04:01:53.068Z,9.56
2017-11-10T04:02:53.049Z,9.58
2017-11-10T04:03:52.727Z,9.55
2017-11-10T04:04:53.083Z,9.55
2017-11-10T04:05:53.105Z,9.48
2017-11-10T04:06:52.772Z,9.55
2017-11-10T04:07:52.785Z,9.54
2017-11-10T04:08:53.142Z,9.47
2017-11-10T04:09:52.819Z,9.47
2017-11-10T04:10:53.175Z,9.54
2017-11-10T04:11:52.848Z,9.44
2017-11-10T04:12:52.858Z,9.59
2017-11-10T04:13:52.882Z,9.48
2017-11-10T04:14:53.231Z,9.54
2017-11-10T04:15:53.244Z,9.5
2017-11-10T04:16:53.260Z,9.48
2017-11-10T04:17:53.264Z,9.56
2017-11-10T04:18:53.296Z,9.47
2017-11-10T04:19:52.957Z,9.5
2017-11-10T04:20:52.634Z,9.46
2017-11-10T04:21:53.325Z,9.5
2017-11-10T04:22:53.341Z,9.5
2017-11-10T04:23:53.349Z,9.51
2017-11-10T04:24:53.373Z,9.56
2017-11-10T04:25:53.384Z,9.5
2017-11-10T04:26:53.414Z,9.47
2017-11-10T04:27:53.071Z,9.55
2017-11-10T04:28:53.424Z,9.56
2017-11-10T04:29:53.444Z,9.58
2017-11-10T04:30:53.454Z,9.55
2017-11-10T04:31:53.474Z,9.51
2017-11-10T04:32:53.146Z,9.59
2017-11-10T04:33:53.496Z,9.61
2017-11-10T04:34:53.509Z,9.58
2017-11-10T04:35:53.530Z,9.58
2017-11-10T04:36:53.204Z,9.59
2017-11-10T04:37:53.551Z,9.5
2017-11-10T04:38:53.583Z,9.56
2017-11-10T04:39:53.590Z,9.54
2017-11-10T04:40:53.608Z,9.55
2017-11-10T04:41:53.610Z,9.55
2017-11-10T04:42:53.287Z,9.59
2017-11-10T04:43:53.302Z,9.51
2017-11-10T04:44:53.659Z,9.54
2017-11-10T04:45:53.692Z,9.59
2017-11-10T04:46:53.349Z,9.55
2017-11-10T04:47:53.703Z,9.54
2017-11-10T04:48:53.712Z,9.56
2017-11-10T04:49:53.390Z,9.55
2017-11-10T04:50:53.744Z,9.56
2017-11-10T04:51:53.766Z,9.58
2017-11-10T04:52:53.774Z,9.54
2017-11-10T04:53:53.791Z,9.58
2017-11-10T04:54:53.804Z,9.59
2017-11-10T04:55:53.815Z,9.47
2017-11-10T04:56:53.837Z,9.5
2017-11-10T04:57:53.841Z,9.47
2017-11-10T04:58:53.856Z,9.5
2017-11-10T04:59:53.874Z,9.54
2017-11-10T05:00:53.911Z,9.48
2017-11-10T05:01:53.222Z,9.5
2017-11-10T05:02:53.929Z,9.51
2017-11-10T05:03:53.595Z,9.51
2017-11-10T05:04:53.941Z,9.43
2017-11-10T05:05:53.621Z,9.41
2017-11-10T05:06:53.969Z,9.44
2017-11-10T05:07:53.648Z,9.43
2017-11-10T05:08:54.008Z,9.44
2017-11-10T05:09:53.681Z,9.46
2017-11-10T05:10:54.028Z,9.47
2017-11-10T05:11:53.713Z,9.46
2017-11-10T05:12:54.061Z,9.44
2017-11-10T05:13:54.064Z,9.48
2017-11-10T05:14:54.090Z,9.47
2017-11-10T05:15:53.764Z,9.44
2017-11-10T05:16:53.439Z,9.41
2017-11-10T05:17:54.125Z,9.41
2017-11-10T05:18:54.152Z,9.47
2017-11-10T05:19:54.159Z,9.43
2017-11-10T05:20:54.169Z,9.41
2017-11-10T05:21:54.185Z,9.47
2017-11-10T05:22:54.202Z,9.47
2017-11-10T05:23:54.222Z,9.41
2017-11-10T05:24:53.891Z,9.44
2017-11-10T05:25:54.244Z,9.41
2017-11-10T05:26:54.264Z,9.41
2017-11-10T05:27:54.272Z,9.47
2017-11-10T05:28:54.288Z,9.46
2017-11-10T05:29:54.314Z,9.44
2017-11-10T05:30:54.313Z,9.43
2017-11-10T05:31:54.352Z,9.46
2017-11-10T05:32:54.344Z,9.44
2017-11-10T05:33:54.363Z,9.44
2017-11-10T05:34:54.376Z,9.46
2017-11-10T05:35:54.053Z,9.48
2017-11-10T05:36:54.399Z,9.44
2017-11-10T05:37:54.418Z,9.48
2017-11-10T05:38:54.441Z,9.46
2017-11-10T05:39:54.442Z,9.46
2017-11-10T05:40:54.457Z,9.48
2017-11-10T05:41:54.486Z,9.41
2017-11-10T05:42:54.151Z,9.41
2017-11-10T05:43:54.506Z,9.48
2017-11-10T05:44:54.514Z,9.44
2017-11-10T05:45:54.567Z,9.46
2017-11-10T05:46:54.541Z,9.46
2017-11-10T05:47:54.221Z,9.39
2017-11-10T05:48:54.595Z,9.44
2017-11-10T05:49:54.593Z,9.47
2017-11-10T05:50:54.600Z,9.44
2017-11-10T05:51:54.623Z,9.44
2017-11-10T05:52:54.297Z,9.43
2017-11-10T05:53:54.646Z,9.46
2017-11-10T05:54:54.320Z,9.44
2017-11-10T05:55:54.671Z,9.46
2017-11-10T05:56:54.351Z,9.44
2017-11-10T05:57:54.702Z,9.4
2017-11-10T05:58:54.379Z,9.46
2017-11-10T05:59:54.730Z,9.47
2017-11-10T06:00:54.778Z,9.46
2017-11-10T06:01:54.443Z,9.47
2017-11-10T06:02:54.773Z,9.41
2017-11-10T06:03:54.791Z,9.47
2017-11-10T06:04:54.813Z,9.46
2017-11-10T06:05:54.829Z,9.47
2017-11-10T06:06:54.830Z,9.47
2017-11-10T06:07:54.852Z,9.47
2017-11-10T06:08:54.863Z,9.44
2017-11-10T06:09:54.872Z,9.43
2017-11-10T06:10:54.581Z,9.44
2017-11-10T06:11:54.819Z,9.41
2017-11-10T06:12:54.916Z,9.37
2017-11-10T06:13:54.944Z,9.36
2017-11-10T06:14:54.949Z,9.32
2017-11-10T06:15:54.963Z,9.39
2017-11-10T06:16:54.641Z,9.37
2017-11-10T06:17:54.651Z,9.44
2017-11-10T06:18:55.006Z,9.4
2017-11-10T06:19:55.033Z,9.34
2017-11-10T06:20:55.032Z,9.36
2017-11-10T06:21:55.041Z,9.41
2017-11-10T06:22:55.057Z,9.36
2017-11-10T06:23:54.400Z,9.39
2017-11-10T06:24:55.091Z,9.44
2017-11-10T06:25:55.097Z,9.34
2017-11-10T06:26:55.119Z,9.34
2017-11-10T06:27:55.132Z,9.4
2017-11-10T06:28:55.148Z,9.36
2017-11-10T06:29:55.164Z,9.37
2017-11-10T06:30:55.174Z,9.41
2017-11-10T06:31:54.853Z,9.36
2017-11-10T06:32:55.198Z,9.37
2017-11-10T06:33:55.219Z,9.46
2017-11-10T06:34:55.233Z,9.47
2017-11-10T06:35:55.243Z,9.36
2017-11-10T06:36:55.258Z,9.37
2017-11-10T06:37:55.278Z,9.43
2017-11-10T06:38:55.286Z,9.44
2017-11-10T06:39:55.301Z,9.47
2017-11-10T06:40:55.315Z,9.41
2017-11-10T06:41:55.353Z,9.46
2017-11-10T06:42:55.349Z,9.5
2017-11-10T06:43:55.356Z,9.47
2017-11-10T06:44:54.702Z,9.44
2017-11-10T06:45:55.049Z,9.41
2017-11-10T06:46:55.400Z,9.41
2017-11-10T06:47:55.414Z,9.47
2017-11-10T06:48:55.115Z,9.48
2017-11-10T06:49:55.459Z,9.44
2017-11-10T06:50:55.121Z,9.39
2017-11-10T06:51:55.477Z,9.46
2017-11-10T06:52:55.151Z,9.41
2017-11-10T06:53:55.503Z,9.44
2017-11-10T06:54:55.513Z,9.46
2017-11-10T06:55:55.197Z,9.48
2017-11-10T06:56:55.207Z,9.43
2017-11-10T06:57:55.561Z,9.47
2017-11-10T06:58:55.577Z,9.46
2017-11-10T06:59:55.592Z,9.47
2017-11-10T07:00:55.625Z,9.46
2017-11-10T07:01:55.282Z,9.4
2017-11-10T07:02:55.632Z,9.47
2017-11-10T07:03:55.651Z,9.43
2017-11-10T07:04:55.661Z,9.44
2017-11-10T07:05:55.676Z,9.43
2017-11-10T07:06:55.713Z,9.48
2017-11-10T07:07:55.714Z,9.41
2017-11-10T07:08:55.729Z,9.41
2017-11-10T07:09:55.394Z,9.51
2017-11-10T07:10:55.753Z,9.48
2017-11-10T07:11:55.763Z,9.48
2017-11-10T07:12:55.782Z,9.43
2017-11-10T07:13:55.799Z,9.5
2017-11-10T07:14:55.805Z,9.47
2017-11-10T07:15:55.829Z,9.55
2017-11-10T07:16:55.538Z,9.51
2017-11-10T07:17:55.848Z,9.51
2017-11-10T07:18:55.867Z,9.55
2017-11-10T07:19:55.543Z,9.54
2017-11-10T07:20:55.561Z,9.56
2017-11-10T07:21:55.917Z,9.5
2017-11-10T07:22:55.915Z,9.5
2017-11-10T07:23:55.932Z,9.46
2017-11-10T07:24:55.952Z,9.59
2017-11-10T07:25:55.964Z,9.56
2017-11-10T07:26:55.639Z,9.55
2017-11-10T07:27:55.997Z,9.56
2017-11-10T07:28:56.006Z,9.59
2017-11-10T07:29:56.016Z,9.56
2017-11-10T07:30:56.027Z,9.55
2017-11-10T07:31:56.054Z,9.58
2017-11-10T07:32:56.061Z,9.59
2017-11-10T07:33:56.087Z,9.56
2017-11-10T07:34:55.752Z,9.58
2017-11-10T07:35:55.769Z,9.55
2017-11-10T07:36:55.792Z,9.54
2017-11-10T07:37:56.131Z,9.59
2017-11-10T07:38:55.822Z,9.58
2017-11-10T07:39:56.164Z,9.64
2017-11-10T07:40:56.178Z,9.56
2017-11-10T07:41:55.865Z,9.55
2017-11-10T07:42:56.216Z,9.61
2017-11-10T07:43:55.882Z,9.64
2017-11-10T07:44:56.235Z,9.68
2017-11-10T07:45:56.249Z,9.64
2017-11-10T07:46:56.292Z,9.69
2017-11-10T07:47:55.939Z,9.66
2017-11-10T07:48:56.290Z,9.69
2017-11-10T07:49:56.311Z,9.68
2017-11-10T07:50:56.322Z,9.66
2017-11-10T07:51:56.004Z,9.69
2017-11-10T07:52:56.013Z,9.68
2017-11-10T07:53:56.365Z,9.74
2017-11-10T07:54:56.045Z,9.79
2017-11-10T07:55:56.058Z,9.69
2017-11-10T07:56:56.405Z,9.68
2017-11-10T07:57:56.424Z,9.74
2017-11-10T07:58:56.450Z,9.66
2017-11-10T07:59:56.464Z,9.69
2017-11-10T08:00:57.455Z,9.74
2017-11-10T08:01:56.478Z,9.68
2017-11-10T08:02:56.489Z,9.76
2017-11-10T08:03:56.172Z,9.83
2017-11-10T08:04:56.520Z,9.65
2017-11-10T08:05:56.201Z,9.66
2017-11-10T08:06:56.551Z,9.66
2017-11-10T08:07:56.229Z,9.64
2017-11-10T08:08:56.252Z,9.72
2017-11-10T08:09:56.600Z,9.69
2017-11-10T08:10:56.280Z,9.64
2017-11-10T08:11:56.622Z,9.73
2017-11-10T08:12:56.633Z,9.73
2017-11-10T08:13:56.660Z,9.76
2017-11-10T08:14:56.332Z,9.79
2017-11-10T08:15:56.768Z,9.76
2017-11-10T08:16:56.695Z,9.77
2017-11-10T08:17:56.052Z,9.79
2017-11-10T08:18:56.724Z,9.83
2017-11-10T08:19:56.746Z,9.8
2017-11-10T08:20:56.761Z,9.82
2017-11-10T08:21:56.430Z,9.8
2017-11-10T08:22:56.807Z,9.82
2017-11-10T08:23:56.810Z,9.84
2017-11-10T08:24:56.486Z,9.86
2017-11-10T08:25:56.830Z,9.84
2017-11-10T08:26:56.847Z,9.82
2017-11-10T08:27:56.853Z,9.83
2017-11-10T08:28:56.536Z,9.83
2017-11-10T08:29:56.880Z,9.83
2017-11-10T08:30:56.906Z,9.8
2017-11-10T08:31:56.922Z,9.86
2017-11-10T08:32:56.591Z,9.8
2017-11-10T08:33:56.609Z,9.89
2017-11-10T08:34:56.639Z,9.91
2017-11-10T08:35:56.975Z,9.87
2017-11-10T08:36:56.987Z,9.89
2017-11-10T08:37:56.662Z,9.82
2017-11-10T08:38:56.688Z,9.83
2017-11-10T08:39:56.696Z,9.92
2017-11-10T08:40:56.711Z,9.91
2017-11-10T08:41:56.720Z,9.84
2017-11-10T08:42:57.079Z,9.92
2017-11-10T08:43:57.090Z,9.83
2017-11-10T08:44:56.774Z,9.91
2017-11-10T08:45:57.121Z,9.92
2017-11-10T08:46:56.813Z,9.94
2017-11-10T08:47:57.149Z,9.82
2017-11-10T08:48:57.184Z,9.84
2017-11-10T08:49:56.842Z,9.83
2017-11-10T08:50:57.207Z,9.79
2017-11-10T08:51:57.213Z,9.84
2017-11-10T08:52:57.221Z,9.86
2017-11-10T08:53:57.235Z,9.82
2017-11-10T08:54:57.250Z,9.89
2017-11-10T08:55:56.929Z,9.8
2017-11-10T08:56:57.279Z,9.82
2017-11-10T08:57:57.299Z,9.79
2017-11-10T08:58:57.319Z,9.8
2017-11-10T08:59:57.331Z,9.92
2017-11-10T09:00:57.001Z,9.89
2017-11-10T09:01:57.355Z,9.87
2017-11-10T09:02:57.367Z,9.92
2017-11-10T09:03:57.402Z,9.89
2017-11-10T09:04:57.399Z,9.89
2017-11-10T09:05:57.074Z,9.91
2017-11-10T09:06:57.433Z,9.97
2017-11-10T09:07:57.440Z,9.92
2017-11-10T09:08:57.463Z,9.92
2017-11-10T09:09:57.488Z,9.89
2017-11-10T09:10:57.149Z,9.91
2017-11-10T09:11:57.177Z,9.92
2017-11-10T09:12:57.513Z,9.91
2017-11-10T09:13:57.529Z,9.89
2017-11-10T09:14:57.205Z,9.92
2017-11-10T09:15:57.587Z,9.92
2017-11-10T09:16:57.591Z,9.92
2017-11-10T09:17:57.592Z,9.94
2017-11-10T09:18:57.603Z,9.92
2017-11-10T09:19:57.626Z,9.92
2017-11-10T09:20:57.296Z,9.95
2017-11-10T09:21:57.648Z,9.91
2017-11-10T09:22:57.667Z,9.95
2017-11-10T09:23:57.341Z,9.97
2017-11-10T09:24:57.697Z,9.94
2017-11-10T09:25:57.705Z,9.94
2017-11-10T09:26:57.728Z,9.94
2017-11-10T09:27:57.739Z,9.97
2017-11-10T09:28:57.787Z,9.98
2017-11-10T09:29:57.429Z,9.92
2017-11-10T09:30:57.442Z,9.97
2017-11-10T09:31:57.455Z,9.99
2017-11-10T09:32:57.467Z,10.02
2017-11-10T09:33:57.517Z,9.97
2017-11-10T09:34:57.497Z,10.01
2017-11-10T09:35:57.861Z,9.99
2017-11-10T09:36:57.870Z,9.94
2017-11-10T09:37:57.886Z,10.01
2017-11-10T09:38:57.561Z,10.05
2017-11-10T09:39:57.576Z,10.02
2017-11-10T09:40:57.596Z,10.07
2017-11-10T09:41:57.942Z,10.09
2017-11-10T09:42:57.959Z,10.04
2017-11-10T09:43:57.971Z,10.13
2017-11-10T09:44:58.028Z,10.16
2017-11-10T09:45:58.002Z,10.12
2017-11-10T09:46:58.013Z,10.13
2017-11-10T09:47:58.031Z,10.13
2017-11-10T09:48:58.051Z,10.19
2017-11-10T09:49:58.068Z,10.16
2017-11-10T09:50:58.086Z,10.13
2017-11-10T09:51:58.091Z,10.19
2017-11-10T09:52:58.104Z,10.17
2017-11-10T09:53:58.120Z,10.15
2017-11-10T09:54:57.807Z,10.16
2017-11-10T09:55:57.817Z,10.12
2017-11-10T09:56:58.159Z,10.17
2017-11-10T09:57:58.184Z,10.1
2017-11-10T09:58:58.190Z,10.17
2017-11-10T09:59:58.209Z,10.12
2017-11-10T10:00:58.218Z,10.19
2017-11-10T10:01:58.251Z,10.1
2017-11-10T10:02:57.915Z,10.2
2017-11-10T10:03:58.271Z,10.19
2017-11-10T10:04:58.290Z,10.12
2017-11-10T10:05:58.299Z,10.22
2017-11-10T10:06:58.311Z,10.15
2017-11-10T10:07:58.329Z,10.19
2017-11-10T10:08:58.340Z,10.15
2017-11-10T10:09:58.361Z,10.17
2017-11-10T10:10:58.370Z,10.12
2017-11-10T10:11:58.395Z,10.19
2017-11-10T10:12:58.399Z,10.15
2017-11-10T10:13:58.423Z,10.19
2017-11-10T10:14:58.434Z,10.16
2017-11-10T10:15:58.109Z,10.19
2017-11-10T10:16:58.463Z,10.25
2017-11-10T10:17:58.481Z,10.16
2017-11-10T10:18:58.165Z,10.12
2017-11-10T10:19:58.521Z,10.15
2017-11-10T10:20:58.519Z,10.15
2017-11-10T10:21:58.547Z,10.16
2017-11-10T10:22:58.552Z,10.16
2017-11-10T10:23:58.228Z,10.19
2017-11-10T10:24:58.247Z,10.19
2017-11-10T10:25:58.269Z,10.13
2017-11-10T10:26:58.627Z,10.19
2017-11-10T10:27:58.624Z,10.17
2017-11-10T10:28:58.644Z,10.13
2017-11-10T10:29:58.667Z,10.17
2017-11-10T10:30:58.671Z,10.19
2017-11-10T10:31:58.693Z,10.2
2017-11-10T10:32:58.697Z,10.31
2017-11-10T10:33:58.040Z,10.26
2017-11-10T10:34:58.731Z,10.23
2017-11-10T10:35:58.764Z,10.23
2017-11-10T10:36:58.784Z,10.23
2017-11-10T10:37:58.441Z,10.22
2017-11-10T10:38:58.799Z,10.25
2017-11-10T10:39:58.805Z,10.23
2017-11-10T10:40:58.479Z,10.26
2017-11-10T10:41:58.163Z,10.28
2017-11-10T10:42:58.517Z,10.25
2017-11-10T10:43:58.919Z,10.26
2017-11-10T10:44:58.894Z,10.23
2017-11-10T10:45:58.901Z,10.28
2017-11-10T10:46:58.911Z,10.28
2017-11-10T10:47:58.590Z,10.3
2017-11-10T10:48:58.953Z,10.3
2017-11-10T10:49:58.966Z,10.31
2017-11-10T10:50:58.632Z,10.31
2017-11-10T10:51:59.001Z,10.34
2017-11-10T10:52:58.662Z,10.31
2017-11-10T10:53:59.022Z,10.4
2017-11-10T10:54:59.031Z,10.33
2017-11-10T10:55:59.045Z,10.33
2017-11-10T10:56:59.062Z,10.34
2017-11-10T10:57:58.737Z,10.35
2017-11-10T10:58:58.752Z,10.34
2017-11-10T10:59:59.107Z,10.37
2017-11-10T11:00:59.119Z,10.42
2017-11-10T11:01:59.148Z,10.4
2017-11-10T11:02:59.153Z,10.42
2017-11-10T11:03:58.831Z,10.44
2017-11-10T11:04:59.179Z,10.41
2017-11-10T11:05:59.200Z,10.41
2017-11-10T11:06:59.211Z,10.41
2017-11-10T11:07:59.224Z,10.44
2017-11-10T11:08:59.242Z,10.37
2017-11-10T11:09:59.256Z,10.44
2017-11-10T11:10:59.298Z,10.37
2017-11-10T11:11:59.286Z,10.37
2017-11-10T11:12:58.962Z,10.41
2017-11-10T11:13:59.019Z,10.42
2017-11-10T11:14:58.995Z,10.38
2017-11-10T11:15:59.344Z,10.33
2017-11-10T11:16:59.024Z,10.34
2017-11-10T11:17:59.374Z,10.35
2017-11-10T11:18:59.398Z,10.28
2017-11-10T11:19:59.412Z,10.3
2017-11-10T11:20:59.425Z,10.28
2017-11-10T11:21:59.443Z,10.4
2017-11-10T11:22:59.114Z,10.31
2017-11-10T11:23:59.463Z,10.34
2017-11-10T11:24:59.517Z,10.31
2017-11-10T11:25:59.497Z,10.26
2017-11-10T11:26:59.506Z,10.4
2017-11-10T11:27:59.191Z,10.3
2017-11-10T11:28:59.208Z,10.28
2017-11-10T11:29:59.553Z,10.41
2017-11-10T11:30:59.581Z,10.37
2017-11-10T11:31:59.584Z,10.35
2017-11-10T11:32:59.601Z,10.3
2017-11-10T11:33:58.946Z,10.38
2017-11-10T11:34:59.638Z,10.38
2017-11-10T11:35:59.645Z,10.35
2017-11-10T11:36:59.326Z,10.41
2017-11-10T11:37:59.728Z,10.42
2017-11-10T11:38:59.690Z,10.44
2017-11-10T11:39:59.703Z,10.41
2017-11-10T11:40:59.724Z,10.44
2017-11-10T11:41:59.404Z,10.44
2017-11-10T11:42:59.752Z,10.57
2017-11-10T11:43:59.432Z,10.57
2017-11-10T11:44:59.782Z,10.56
2017-11-10T11:45:59.796Z,10.54
2017-11-10T11:46:59.508Z,10.56
2017-11-10T11:47:59.504Z,10.61
2017-11-10T11:48:59.843Z,10.59
2017-11-10T11:49:59.520Z,10.6
2017-11-10T11:50:59.870Z,10.64
2017-11-10T11:51:59.560Z,10.67
2017-11-10T11:52:59.905Z,10.63
2017-11-10T11:53:59.578Z,10.71
2017-11-10T11:54:59.940Z,10.64
2017-11-10T11:55:59.950Z,10.61
2017-11-10T11:56:59.966Z,10.69
2017-11-10T11:57:59.978Z,10.67
2017-11-10T11:58:59.656Z,10.61
2017-11-10T12:00:00.170Z,10.64
2017-11-10T12:01:00.022Z,10.74
2017-11-10T12:01:59.701Z,10.67
2017-11-10T12:03:00.058Z,10.64
2017-11-10T12:04:00.073Z,10.71
2017-11-10T12:04:59.755Z,10.72
2017-11-10T12:06:00.100Z,10.76
2017-11-10T12:07:00.135Z,10.79
2017-11-10T12:08:00.136Z,10.75
2017-11-10T12:08:59.808Z,10.78
2017-11-10T12:10:00.169Z,10.76
2017-11-10T12:11:00.220Z,10.75
2017-11-10T12:12:00.202Z,10.78
2017-11-10T12:13:00.220Z,10.81
2017-11-10T12:14:00.229Z,10.81
2017-11-10T12:14:59.904Z,10.75
2017-11-10T12:16:00.256Z,10.72
2017-11-10T12:16:59.937Z,10.78
2017-11-10T12:18:00.284Z,10.78
2017-11-10T12:19:00.303Z,10.79
2017-11-10T12:20:00.332Z,10.76
2017-11-10T12:21:00.331Z,10.78
2017-11-10T12:22:00.342Z,10.72
2017-11-10T12:23:00.037Z,10.69
2017-11-10T12:24:00.384Z,10.69
2017-11-10T12:25:00.053Z,10.79
2017-11-10T12:26:00.068Z,10.76
2017-11-10T12:27:00.420Z,10.81
2017-11-10T12:28:00.450Z,10.79
2017-11-10T12:29:00.453Z,10.72
2017-11-10T12:29:59.806Z,10.76
2017-11-10T12:31:00.145Z,10.82
2017-11-10T12:32:00.162Z,10.76
2017-11-10T12:33:00.511Z,10.84
2017-11-10T12:34:00.196Z,10.79
2017-11-10T12:35:00.546Z,10.82
2017-11-10T12:36:00.561Z,10.75
2017-11-10T12:37:00.579Z,10.78
2017-11-10T12:38:00.256Z,10.75
2017-11-10T12:39:00.268Z,10.75
2017-11-10T12:40:00.617Z,10.82
2017-11-10T12:41:00.640Z,10.78
2017-11-10T12:42:00.687Z,10.78
2017-11-10T12:43:00.669Z,10.71
2017-11-10T12:44:00.689Z,10.76
2017-11-10T12:45:00.360Z,10.68
2017-11-10T12:46:00.379Z,10.71
2017-11-10T12:47:00.732Z,10.69
2017-11-10T12:48:00.760Z,10.69
2017-11-10T12:49:00.435Z,10.64
2017-11-10T12:50:00.437Z,10.61
2017-11-10T12:51:00.793Z,10.69
2017-11-10T12:52:00.473Z,10.67
2017-11-10T12:53:00.483Z,10.68
2017-11-10T12:54:00.843Z,10.57
2017-11-10T12:55:00.513Z,10.53
2017-11-10T12:56:00.872Z,10.6
2017-11-10T12:57:00.885Z,10.53
2017-11-10T12:58:00.572Z,10.6
2017-11-10T12:59:00.914Z,10.56
2017-11-10T13:00:00.938Z,10.54
2017-11-10T13:01:00.608Z,10.49
2017-11-10T13:02:00.962Z,10.6
2017-11-10T13:03:00.981Z,10.56
2017-11-10T13:04:00.666Z,10.53
2017-11-10T13:05:00.671Z,10.57
2017-11-10T13:06:01.029Z,10.51
2017-11-10T13:07:00.704Z,10.49
2017-11-10T13:08:01.062Z,10.48
2017-11-10T13:09:01.068Z,10.51
2017-11-10T13:10:01.089Z,10.46
2017-11-10T13:11:01.096Z,10.53
2017-11-10T13:12:01.128Z,10.51
2017-11-10T13:13:00.790Z,10.41
2017-11-10T13:14:01.145Z,10.44